createdAt,value
2023-03-26T00:00:55.636Z,50.98
2023-03-26T00:02:55.713Z,50.49
2023-03-26T00:03:55.662Z,50.68
2023-03-26T00:04:55.646Z,50.68
2023-03-26T00:05:55.898Z,50.63
2023-03-26T00:06:55.661Z,50.42
2023-03-26T00:07:55.635Z,50.40
2023-03-26T00:08:55.676Z,50.50
2023-03-26T00:09:55.642Z,50.58
2023-03-26T00:11:55.653Z,50.74
2023-03-26T00:12:55.659Z,50.76
2023-03-26T00:13:55.639Z,50.76
2023-03-26T00:14:55.676Z,50.75
2023-03-26T00:15:55.869Z,50.69
2023-03-26T00:16:55.707Z,50.68
2023-03-26T00:17:55.722Z,50.71
2023-03-26T00:18:55.697Z,50.71
2023-03-26T00:19:55.678Z,50.86
2023-03-26T00:20:55.728Z,50.80
2023-03-26T00:21:55.686Z,50.80
2023-03-26T00:22:55.660Z,50.70
2023-03-26T00:23:55.705Z,50.75
2023-03-26T00:24:55.693Z,50.63
2023-03-26T00:25:56.099Z,50.66
2023-03-26T00:26:55.715Z,50.69
2023-03-26T00:27:55.690Z,50.59
2023-03-26T00:28:55.711Z,50.34
2023-03-26T00:29:55.707Z,50.53
2023-03-26T00:30:55.720Z,50.75
2023-03-26T00:31:55.700Z,50.90
2023-03-26T00:32:55.782Z,51.06
2023-03-26T00:33:55.870Z,51.35
2023-03-26T00:34:55.723Z,51.63
2023-03-26T00:35:56.083Z,52.38
2023-03-26T00:36:55.722Z,52.38
2023-03-26T00:37:55.737Z,52.55
2023-03-26T00:38:55.745Z,52.73
2023-03-26T00:39:55.703Z,52.92
2023-03-26T00:40:55.737Z,52.74
2023-03-26T00:41:55.762Z,52.87
2023-03-26T00:43:55.738Z,52.92
2023-03-26T00:44:55.752Z,52.77
2023-03-26T00:45:56.025Z,52.78
2023-03-26T00:46:55.768Z,52.85
2023-03-26T00:47:55.824Z,53.08
2023-03-26T00:48:55.767Z,53.15
2023-03-26T00:49:55.765Z,53.11
2023-03-26T00:50:55.797Z,53.08
2023-03-26T00:51:55.733Z,53.24
2023-03-26T00:52:55.927Z,53.30
2023-03-26T00:53:55.748Z,53.34
2023-03-26T00:54:55.790Z,53.49
2023-03-26T00:55:55.914Z,53.37
2023-03-26T00:56:55.891Z,53.31
2023-03-26T00:57:55.798Z,53.31
2023-03-26T00:58:55.834Z,53.35
2023-03-26T00:59:55.755Z,53.35
2023-03-26T01:00:55.793Z,53.26
2023-03-26T01:01:55.784Z,53.26
2023-03-26T01:02:55.874Z,53.50
2023-03-26T01:04:05.199Z,53.91
2023-03-26T01:04:55.804Z,54.33
2023-03-26T01:05:55.976Z,54.46
2023-03-26T01:07:55.814Z,54.77
2023-03-26T01:08:55.853Z,54.66
2023-03-26T01:09:55.812Z,54.66
2023-03-26T01:10:55.827Z,55.13
2023-03-26T01:11:55.842Z,55.06
2023-03-26T01:12:55.826Z,54.77
2023-03-26T01:13:55.823Z,54.77
2023-03-26T01:14:55.803Z,54.97
2023-03-26T01:15:56.017Z,54.93
2023-03-26T01:16:55.875Z,54.91
2023-03-26T01:17:55.878Z,54.61
2023-03-26T01:18:55.863Z,54.26
2023-03-26T01:19:55.840Z,54.26
2023-03-26T01:20:55.844Z,54.09
2023-03-26T01:21:55.872Z,54.34
2023-03-26T01:22:55.844Z,54.33
2023-03-26T01:23:55.853Z,54.16
2023-03-26T01:24:55.869Z,54.33
2023-03-26T01:25:56.117Z,54.45
2023-03-26T01:26:55.844Z,54.49
2023-03-26T01:27:55.863Z,54.25
2023-03-26T01:28:55.829Z,54.58
2023-03-26T01:29:55.905Z,54.48
2023-03-26T01:30:55.849Z,54.48
2023-03-26T01:31:55.829Z,54.38
2023-03-26T01:32:55.970Z,53.86
2023-03-26T01:33:55.856Z,53.53
2023-03-26T01:34:55.911Z,53.45
2023-03-26T01:35:56.045Z,53.45
2023-03-26T01:36:55.895Z,53.43
2023-03-26T01:37:55.876Z,53.27
2023-03-26T01:38:55.883Z,53.22
2023-03-26T01:39:55.892Z,53.11
2023-03-26T01:40:55.896Z,53.04
2023-03-26T01:42:55.927Z,52.84
2023-03-26T01:43:55.911Z,52.70
2023-03-26T01:44:55.864Z,52.73
2023-03-26T01:45:56.146Z,52.90
2023-03-26T01:46:56.007Z,53.04
2023-03-26T01:47:55.913Z,52.92
2023-03-26T01:48:55.894Z,52.83
2023-03-26T01:49:55.915Z,52.76
2023-03-26T01:50:55.928Z,52.82
2023-03-26T01:51:55.895Z,52.74
2023-03-26T01:52:55.921Z,52.57
2023-03-26T01:53:55.893Z,52.66
2023-03-26T01:55:56.280Z,52.66
2023-03-26T01:56:55.956Z,52.66
2023-03-26T01:57:55.928Z,52.63
2023-03-26T01:58:55.950Z,52.45
2023-03-26T01:59:55.952Z,52.56
2023-03-26T02:00:55.996Z,52.88
2023-03-26T02:01:56.082Z,52.88
2023-03-26T02:02:56.042Z,53.18
2023-03-26T02:04:55.946Z,53.62
2023-03-26T02:05:56.132Z,53.61
2023-03-26T02:06:55.947Z,53.61
2023-03-26T02:07:55.926Z,53.45
2023-03-26T02:08:55.967Z,53.33
2023-03-26T02:09:55.983Z,53.12
2023-03-26T02:10:55.994Z,53.13
2023-03-26T02:11:55.946Z,53.01
2023-03-26T02:12:55.945Z,52.83
2023-03-26T02:13:55.936Z,52.72
2023-03-26T02:15:56.189Z,52.44
2023-03-26T02:16:55.992Z,52.52
2023-03-26T02:17:56.011Z,52.50
2023-03-26T02:18:55.987Z,52.85
2023-03-26T02:19:55.996Z,53.20
2023-03-26T02:20:55.969Z,53.20
2023-03-26T02:21:55.965Z,53.22
2023-03-26T02:22:55.985Z,53.65
2023-03-26T02:23:56.007Z,53.66
2023-03-26T02:24:55.980Z,53.66
2023-03-26T02:26:56.014Z,54.18
2023-03-26T02:29:56.013Z,54.78
2023-03-26T02:30:55.989Z,54.88
2023-03-26T02:31:56.032Z,54.82
2023-03-26T02:32:56.068Z,55.45
2023-03-26T02:33:56.016Z,55.56
2023-03-26T02:34:56.004Z,55.65
2023-03-26T02:35:56.294Z,55.61
2023-03-26T02:36:56.032Z,55.33
2023-03-26T02:37:56.019Z,55.26
2023-03-26T02:38:56.038Z,55.32
2023-03-26T02:41:56.051Z,55.91
2023-03-26T02:42:56.030Z,56.21
2023-03-26T02:43:56.012Z,55.88
2023-03-26T02:44:56.050Z,55.73
2023-03-26T02:45:56.336Z,55.73
2023-03-26T02:46:56.080Z,56.62
2023-03-26T02:47:56.087Z,56.62
2023-03-26T02:48:56.073Z,56.90
2023-03-26T02:49:56.054Z,57.08
2023-03-26T02:50:56.037Z,57.35
2023-03-26T02:51:56.094Z,57.63
2023-03-26T02:52:56.042Z,57.63
2023-03-26T02:53:56.050Z,57.90
2023-03-26T02:54:56.088Z,58.30
2023-03-26T02:55:56.178Z,58.30
2023-03-26T02:56:56.109Z,58.38
2023-03-26T02:57:56.057Z,58.40
2023-03-26T02:58:56.044Z,58.82
2023-03-26T02:59:56.113Z,59.32
2023-03-26T03:00:56.102Z,59.32
2023-03-26T03:01:56.118Z,59.64
2023-03-26T03:02:56.153Z,60.05
2023-03-26T03:03:56.073Z,60.20
2023-03-26T03:04:56.099Z,60.44
2023-03-26T03:05:56.365Z,60.44
2023-03-26T03:07:56.089Z,60.71
2023-03-26T03:08:56.073Z,61.11
2023-03-26T03:09:56.130Z,61.68
2023-03-26T03:10:56.091Z,61.68
2023-03-26T03:11:56.100Z,62.50
2023-03-26T03:12:56.091Z,62.50
2023-03-26T03:13:56.121Z,63.14
2023-03-26T03:14:56.106Z,63.61
2023-03-26T03:15:56.311Z,64.16
2023-03-26T03:16:56.149Z,64.57
2023-03-26T03:17:56.148Z,64.94
2023-03-26T03:18:57.810Z,64.79
2023-03-26T03:19:56.140Z,64.84
2023-03-26T03:20:56.148Z,64.98
2023-03-26T03:21:56.162Z,64.60
2023-03-26T03:22:56.293Z,64.75
2023-03-26T03:23:56.125Z,64.80
2023-03-26T03:24:56.116Z,64.77
2023-03-26T03:25:56.460Z,64.62
2023-03-26T03:26:56.855Z,64.49
2023-03-26T03:28:56.134Z,64.80
2023-03-26T03:29:56.152Z,64.62
2023-03-26T03:30:56.200Z,64.64
2023-03-26T03:31:56.163Z,64.46
2023-03-26T03:32:56.232Z,64.13
2023-03-26T03:33:56.164Z,64.13
2023-03-26T03:34:56.174Z,64.00
2023-03-26T03:35:56.499Z,63.34
2023-03-26T03:37:56.167Z,63.09
2023-03-26T03:38:56.164Z,63.24
2023-03-26T03:39:56.161Z,63.11
2023-03-26T03:40:56.170Z,63.32
2023-03-26T03:41:56.180Z,63.35
2023-03-26T03:42:56.193Z,63.01
2023-03-26T03:43:56.189Z,62.85
2023-03-26T03:44:56.209Z,62.70
2023-03-26T03:45:56.483Z,63.02
2023-03-26T03:46:56.176Z,63.22
2023-03-26T03:47:56.271Z,62.11
2023-03-26T03:48:56.200Z,61.83
2023-03-26T03:49:56.179Z,62.15
2023-03-26T03:50:56.244Z,62.56
2023-03-26T03:51:56.193Z,62.68
2023-03-26T03:52:56.198Z,62.79
2023-03-26T03:53:56.207Z,63.18
2023-03-26T03:54:56.198Z,63.18
2023-03-26T03:56:56.315Z,61.71
2023-03-26T03:57:56.219Z,61.23
2023-03-26T03:58:56.231Z,61.74
2023-03-26T04:00:56.268Z,62.23
2023-03-26T04:01:56.233Z,62.58
2023-03-26T04:02:56.427Z,63.05
2023-03-26T04:03:56.368Z,62.68
2023-03-26T04:04:56.231Z,62.55
2023-03-26T04:05:56.448Z,61.90
2023-03-26T04:06:56.230Z,61.90
2023-03-26T04:07:56.220Z,61.75
2023-03-26T04:09:56.276Z,61.69
2023-03-26T04:10:56.275Z,61.74
2023-03-26T04:13:56.265Z,62.40
2023-03-26T04:14:56.248Z,62.16
2023-03-26T04:15:56.778Z,62.16
2023-03-26T04:16:56.249Z,62.02
2023-03-26T04:17:56.316Z,62.39
2023-03-26T04:18:56.307Z,62.97
2023-03-26T04:19:56.248Z,61.61
2023-03-26T04:20:56.299Z,61.95
2023-03-26T04:21:56.288Z,62.59
2023-03-26T04:22:56.254Z,63.61
2023-03-26T04:23:56.308Z,63.80
2023-03-26T04:24:56.294Z,63.57
2023-03-26T04:25:56.511Z,63.68
2023-03-26T04:26:56.283Z,63.50
2023-03-26T04:27:56.282Z,62.79
2023-03-26T04:29:56.264Z,62.38
2023-03-26T04:30:56.288Z,62.01
2023-03-26T04:31:56.315Z,61.82
2023-03-26T04:32:56.327Z,61.94
2023-03-26T04:33:56.330Z,62.17
2023-03-26T04:34:56.318Z,62.00
2023-03-26T04:35:56.580Z,61.83
2023-03-26T04:36:56.323Z,61.72
2023-03-26T04:37:56.358Z,61.50
2023-03-26T04:38:56.291Z,61.62
2023-03-26T04:39:56.310Z,61.43
2023-03-26T04:40:56.322Z,61.26
2023-03-26T04:41:56.350Z,61.42
2023-03-26T04:42:56.321Z,61.78
2023-03-26T04:44:56.349Z,62.03
2023-03-26T04:45:56.523Z,62.21
2023-03-26T04:46:56.384Z,62.84
2023-03-26T04:47:56.383Z,63.24
2023-03-26T04:48:56.356Z,63.22
2023-03-26T04:49:56.324Z,63.37
2023-03-26T04:50:56.347Z,63.00
2023-03-26T04:51:56.364Z,63.15
2023-03-26T04:52:56.348Z,63.30
2023-03-26T04:53:56.357Z,63.30
2023-03-26T04:54:56.378Z,63.39
2023-03-26T04:55:56.599Z,64.04
2023-03-26T04:56:56.428Z,64.04
2023-03-26T04:57:56.384Z,64.11
2023-03-26T04:58:56.365Z,64.28
2023-03-26T04:59:56.373Z,64.12
2023-03-26T05:00:56.408Z,63.75
2023-03-26T05:01:56.404Z,63.63
2023-03-26T05:02:56.486Z,62.75
2023-03-26T05:03:56.387Z,62.75
2023-03-26T05:04:56.399Z,62.43
2023-03-26T05:05:56.573Z,62.10
2023-03-26T05:06:56.390Z,62.11
2023-03-26T05:07:56.410Z,61.64
2023-03-26T05:08:56.379Z,61.61
2023-03-26T05:09:56.406Z,61.74
2023-03-26T05:10:56.570Z,61.98
2023-03-26T05:12:56.398Z,61.68
2023-03-26T05:13:56.386Z,61.66
2023-03-26T05:14:56.370Z,61.50
2023-03-26T05:15:56.406Z,61.64
2023-03-26T05:16:56.408Z,61.83
2023-03-26T05:17:56.410Z,61.79
2023-03-26T05:18:56.428Z,62.03
2023-03-26T05:19:56.468Z,61.94
2023-03-26T05:20:56.800Z,61.94
2023-03-26T05:21:56.435Z,62.14
2023-03-26T05:22:56.428Z,61.92
2023-03-26T05:23:56.435Z,61.75
2023-03-26T05:24:56.463Z,61.68
2023-03-26T05:25:56.450Z,61.29
2023-03-26T05:26:56.458Z,61.29
2023-03-26T05:27:56.487Z,60.85
2023-03-26T05:28:56.428Z,60.85
2023-03-26T05:29:56.441Z,60.67
2023-03-26T05:30:56.709Z,60.19
2023-03-26T05:32:56.634Z,60.47
2023-03-26T05:33:56.496Z,60.53
2023-03-26T05:34:56.429Z,60.34
2023-03-26T05:35:56.459Z,60.14
2023-03-26T05:37:56.502Z,59.50
2023-03-26T05:38:56.459Z,59.50
2023-03-26T05:39:56.459Z,59.31
2023-03-26T05:40:56.611Z,59.20
2023-03-26T05:41:56.503Z,59.50
2023-03-26T05:42:56.506Z,60.98
2023-03-26T05:43:56.482Z,60.98
2023-03-26T05:44:56.485Z,61.84
2023-03-26T05:45:56.512Z,62.58
2023-03-26T05:46:56.506Z,62.90
2023-03-26T05:47:56.544Z,62.98
2023-03-26T05:48:56.488Z,62.42
2023-03-26T05:49:56.523Z,61.46
2023-03-26T05:50:56.944Z,61.46
2023-03-26T05:51:56.507Z,61.18
2023-03-26T05:52:56.479Z,61.46
2023-03-26T05:53:56.512Z,61.41
2023-03-26T05:54:56.523Z,61.33
2023-03-26T05:55:56.557Z,59.86
2023-03-26T05:56:56.577Z,60.71
2023-03-26T05:57:56.498Z,60.52
2023-03-26T05:58:56.489Z,59.76
2023-03-26T05:59:56.518Z,60.38
2023-03-26T06:00:56.576Z,59.99
2023-03-26T06:01:56.514Z,58.34
2023-03-26T06:02:57.219Z,58.34
2023-03-26T06:03:56.850Z,58.32
2023-03-26T06:04:56.583Z,59.17
2023-03-26T06:05:56.547Z,58.90
2023-03-26T06:06:56.506Z,59.85
2023-03-26T06:07:56.509Z,59.95
2023-03-26T06:09:02.195Z,62.42
2023-03-26T06:09:56.536Z,62.42
2023-03-26T06:10:56.808Z,62.00
2023-03-26T06:11:56.525Z,62.43
2023-03-26T06:12:56.534Z,62.20
2023-03-26T06:13:56.604Z,62.53
2023-03-26T06:14:56.536Z,62.16
2023-03-26T06:15:56.604Z,61.96
2023-03-26T06:16:56.548Z,61.95
2023-03-26T06:17:56.600Z,61.88
2023-03-26T06:18:57.737Z,61.68
2023-03-26T06:19:56.540Z,61.68
2023-03-26T06:21:56.662Z,61.46
2023-03-26T06:23:56.781Z,61.29
2023-03-26T06:24:56.613Z,61.44
2023-03-26T06:25:56.576Z,61.44
2023-03-26T06:27:56.638Z,60.92
2023-03-26T06:28:56.619Z,60.94
2023-03-26T06:29:56.718Z,61.00
2023-03-26T06:30:56.960Z,61.00
2023-03-26T06:32:56.765Z,60.69
2023-03-26T06:33:56.727Z,60.31
2023-03-26T06:34:56.647Z,60.19
2023-03-26T06:35:56.749Z,60.45
2023-03-26T06:36:56.655Z,60.45
2023-03-26T06:37:56.635Z,60.73
2023-03-26T06:38:56.745Z,60.77
2023-03-26T06:39:56.756Z,61.29
2023-03-26T06:40:56.899Z,61.29
2023-03-26T06:41:56.705Z,61.33
2023-03-26T06:43:08.557Z,61.54
2023-03-26T06:43:56.751Z,61.54
2023-03-26T06:44:56.741Z,63.23
2023-03-26T06:45:56.742Z,63.42
2023-03-26T06:46:56.816Z,63.42
2023-03-26T06:47:56.791Z,63.49
2023-03-26T06:48:56.742Z,63.49
2023-03-26T06:49:56.735Z,63.50
2023-03-26T06:50:56.741Z,63.22
2023-03-26T06:51:56.733Z,63.43
2023-03-26T06:52:56.767Z,63.43
2023-03-26T06:53:56.721Z,64.20
2023-03-26T06:54:56.715Z,64.44
2023-03-26T06:55:56.835Z,64.57
2023-03-26T06:56:56.814Z,64.36
2023-03-26T06:57:56.770Z,64.92
2023-03-26T06:58:56.755Z,64.92
2023-03-26T06:59:56.827Z,65.69
2023-03-26T07:00:57.016Z,65.69
2023-03-26T07:01:56.761Z,64.78
2023-03-26T07:02:56.800Z,64.78
2023-03-26T07:03:56.863Z,65.70
2023-03-26T07:04:56.790Z,66.00
2023-03-26T07:05:56.851Z,65.96
2023-03-26T07:06:56.750Z,65.96
2023-03-26T07:07:56.755Z,66.46
2023-03-26T07:08:56.822Z,66.03
2023-03-26T07:09:56.855Z,65.56
2023-03-26T07:10:57.058Z,65.56
2023-03-26T07:11:56.777Z,65.55
2023-03-26T07:12:56.854Z,65.55
2023-03-26T07:13:56.862Z,65.00
2023-03-26T07:14:58.402Z,64.59
2023-03-26T07:15:56.859Z,64.12
2023-03-26T07:16:56.794Z,64.12
2023-03-26T07:17:56.873Z,65.12
2023-03-26T07:18:56.738Z,65.12
2023-03-26T07:19:56.796Z,65.18
2023-03-26T07:20:57.062Z,65.18
2023-03-26T07:21:56.817Z,65.60
2023-03-26T07:22:56.840Z,64.96
2023-03-26T07:23:56.840Z,65.68
2023-03-26T07:24:56.808Z,65.19
2023-03-26T07:25:56.888Z,64.50
2023-03-26T07:26:56.840Z,65.93
2023-03-26T07:27:56.896Z,64.55
2023-03-26T07:29:04.037Z,64.41
2023-03-26T07:29:56.844Z,64.41
2023-03-26T07:30:57.177Z,65.01
2023-03-26T07:31:56.871Z,65.01
2023-03-26T07:32:56.923Z,65.43
2023-03-26T07:33:56.891Z,66.01
2023-03-26T07:34:56.856Z,66.60
2023-03-26T07:35:56.858Z,66.18
2023-03-26T07:38:56.889Z,67.01
2023-03-26T07:39:56.920Z,67.17
2023-03-26T07:40:56.984Z,67.24
2023-03-26T07:41:57.106Z,66.94
2023-03-26T07:42:56.909Z,66.08
2023-03-26T07:43:56.904Z,66.08
2023-03-26T07:44:56.839Z,64.95
2023-03-26T07:45:56.943Z,64.48
2023-03-26T07:46:56.827Z,63.77
2023-03-26T07:47:57.006Z,64.68
2023-03-26T07:48:56.945Z,64.95
2023-03-26T07:50:57.100Z,63.91
2023-03-26T07:51:56.987Z,63.71
2023-03-26T07:52:56.797Z,63.47
2023-03-26T07:53:56.789Z,62.91
2023-03-26T07:54:56.830Z,63.36
2023-03-26T07:55:56.811Z,63.98
2023-03-26T07:56:58.861Z,64.17
2023-03-26T07:57:56.850Z,63.26
2023-03-26T07:58:56.831Z,63.40
2023-03-26T07:59:56.878Z,63.04
2023-03-26T08:00:57.084Z,63.15
2023-03-26T08:01:56.950Z,64.27
2023-03-26T08:02:57.200Z,64.27
2023-03-26T08:03:56.888Z,64.12
2023-03-26T08:04:56.962Z,64.37
2023-03-26T08:05:56.813Z,64.17
2023-03-26T08:06:56.832Z,63.74
2023-03-26T08:07:56.846Z,64.14
2023-03-26T08:08:56.847Z,64.19
2023-03-26T08:09:56.868Z,64.76
2023-03-26T08:10:57.169Z,64.81
2023-03-26T08:11:56.825Z,64.72
2023-03-26T08:12:56.851Z,64.86
2023-03-26T08:13:57.553Z,65.17
2023-03-26T08:14:56.880Z,66.09
2023-03-26T08:15:56.889Z,66.09
2023-03-26T08:16:56.889Z,65.93
2023-03-26T08:17:56.886Z,65.93
2023-03-26T08:18:56.848Z,66.28
2023-03-26T08:19:56.890Z,66.70
2023-03-26T08:20:57.082Z,66.70
2023-03-26T08:21:56.850Z,66.10
2023-03-26T08:22:56.896Z,65.98
2023-03-26T08:23:56.886Z,65.84
2023-03-26T08:24:56.843Z,66.19
2023-03-26T08:25:56.879Z,66.61
2023-03-26T08:26:56.869Z,66.43
2023-03-26T08:27:56.916Z,66.87
2023-03-26T08:28:56.872Z,66.87
2023-03-26T08:29:56.885Z,66.62
2023-03-26T08:30:57.315Z,66.25
2023-03-26T08:31:56.896Z,65.21
2023-03-26T08:32:56.937Z,65.07
2023-03-26T08:33:56.898Z,65.07
2023-03-26T08:34:56.938Z,64.56
2023-03-26T08:35:56.925Z,64.56
2023-03-26T08:36:56.923Z,64.95
2023-03-26T08:37:56.876Z,64.52
2023-03-26T08:38:56.893Z,64.18
2023-03-26T08:39:56.919Z,64.57
2023-03-26T08:41:56.896Z,64.88
2023-03-26T08:42:56.905Z,65.26
2023-03-26T08:43:56.908Z,65.16
2023-03-26T08:44:56.902Z,64.85
2023-03-26T08:45:56.941Z,64.02
2023-03-26T08:46:56.936Z,63.79
2023-03-26T08:47:56.980Z,64.61
2023-03-26T08:48:56.889Z,64.70
2023-03-26T08:49:56.942Z,64.62
2023-03-26T08:50:57.286Z,64.17
2023-03-26T08:51:56.909Z,64.37
2023-03-26T08:52:56.954Z,64.85
2023-03-26T08:53:56.941Z,65.28
2023-03-26T08:54:57.476Z,65.28
2023-03-26T08:55:56.933Z,65.18
2023-03-26T08:56:56.973Z,65.37
2023-03-26T08:57:56.938Z,65.58
2023-03-26T08:58:56.986Z,66.32
2023-03-26T08:59:56.938Z,67.07
2023-03-26T09:00:57.214Z,66.76
2023-03-26T09:01:57.006Z,66.23
2023-03-26T09:02:57.045Z,66.65
2023-03-26T09:03:57.001Z,67.57
2023-03-26T09:04:56.934Z,67.08
2023-03-26T09:05:56.954Z,67.23
2023-03-26T09:06:56.955Z,67.59
2023-03-26T09:07:56.949Z,67.92
2023-03-26T09:08:57.023Z,68.41
2023-03-26T09:09:56.976Z,67.81
2023-03-26T09:10:57.198Z,67.92
2023-03-26T09:11:57.093Z,67.64
2023-03-26T09:12:56.989Z,67.64
2023-03-26T09:13:56.973Z,68.17
2023-03-26T09:14:56.962Z,68.29
2023-03-26T09:15:57.037Z,67.74
2023-03-26T09:16:57.044Z,67.29
2023-03-26T09:17:58.164Z,67.29
2023-03-26T09:18:56.991Z,66.35
2023-03-26T09:19:57.020Z,66.70
2023-03-26T09:20:57.334Z,66.97
2023-03-26T09:21:57.002Z,66.77
2023-03-26T09:22:57.012Z,66.88
2023-03-26T09:23:56.989Z,66.67
2023-03-26T09:24:57.010Z,66.74
2023-03-26T09:25:57.025Z,66.67
2023-03-26T09:26:57.024Z,67.58
2023-03-26T09:27:57.019Z,67.66
2023-03-26T09:28:57.038Z,67.18
2023-03-26T09:29:57.007Z,66.96
2023-03-26T09:30:57.230Z,67.29
2023-03-26T09:31:57.194Z,66.49
2023-03-26T09:32:57.069Z,67.30
2023-03-26T09:34:57.084Z,67.14
2023-03-26T09:35:57.120Z,67.46
2023-03-26T09:36:57.056Z,67.85
2023-03-26T09:37:58.181Z,66.48
2023-03-26T09:38:57.057Z,67.33
2023-03-26T09:39:57.122Z,66.62
2023-03-26T09:40:57.307Z,64.99
2023-03-26T09:41:57.120Z,65.63
2023-03-26T09:42:57.056Z,65.33
2023-03-26T09:43:57.052Z,65.94
2023-03-26T09:44:57.129Z,65.94
2023-03-26T09:45:57.135Z,65.65
2023-03-26T09:46:57.054Z,66.07
2023-03-26T09:47:57.166Z,66.01
2023-03-26T09:48:57.121Z,65.93
2023-03-26T09:50:57.409Z,64.92
2023-03-26T09:51:57.140Z,64.93
2023-03-26T09:52:57.059Z,65.15
2023-03-26T09:53:57.067Z,64.88
2023-03-26T09:54:57.075Z,65.36
2023-03-26T09:55:57.194Z,66.12
2023-03-26T09:56:57.176Z,65.06
2023-03-26T09:57:57.142Z,65.49
2023-03-26T09:58:57.099Z,64.62
2023-03-26T09:59:57.159Z,64.17
2023-03-26T10:01:57.097Z,63.09
2023-03-26T10:02:57.150Z,63.48
2023-03-26T10:03:57.103Z,63.67
2023-03-26T10:04:57.124Z,62.95
2023-03-26T10:05:57.106Z,63.97
2023-03-26T10:06:57.118Z,63.14
2023-03-26T10:07:57.153Z,62.46
2023-03-26T10:08:57.167Z,62.46
2023-03-26T10:09:57.173Z,62.75
2023-03-26T10:10:57.316Z,62.56
2023-03-26T10:11:57.213Z,62.74
2023-03-26T10:13:08.127Z,62.44
2023-03-26T10:13:57.116Z,61.49
2023-03-26T10:14:57.115Z,62.59
2023-03-26T10:15:57.178Z,61.38
2023-03-26T10:16:57.183Z,60.79
2023-03-26T10:17:57.255Z,61.01
2023-03-26T10:18:57.180Z,61.01
2023-03-26T10:19:57.139Z,60.94
2023-03-26T10:20:57.213Z,60.49
2023-03-26T10:21:57.187Z,60.88
2023-03-26T10:22:57.146Z,60.20
2023-03-26T10:23:57.153Z,60.33
2023-03-26T10:24:57.181Z,60.03
2023-03-26T10:25:57.207Z,58.15
2023-03-26T10:27:57.166Z,58.33
2023-03-26T10:28:57.168Z,58.91
2023-03-26T10:30:57.562Z,57.29
2023-03-26T10:31:57.210Z,57.10
2023-03-26T10:32:57.236Z,58.06
2023-03-26T10:33:57.230Z,57.65
2023-03-26T10:34:57.157Z,58.38
2023-03-26T10:36:57.198Z,58.26
2023-03-26T10:37:57.213Z,57.56
2023-03-26T10:38:57.171Z,57.68
2023-03-26T10:40:57.349Z,57.43
2023-03-26T10:41:57.194Z,57.19
2023-03-26T10:42:57.208Z,57.32
2023-03-26T10:44:07.354Z,57.64
2023-03-26T10:44:57.209Z,57.87
2023-03-26T10:45:57.282Z,57.56
2023-03-26T10:46:57.188Z,57.95
2023-03-26T10:47:57.224Z,57.72
2023-03-26T10:48:57.248Z,57.48
2023-03-26T10:49:57.278Z,57.42
2023-03-26T10:50:57.434Z,56.35
2023-03-26T10:51:57.276Z,56.68
2023-03-26T10:52:57.263Z,56.47
2023-03-26T10:53:57.310Z,56.62
2023-03-26T10:54:57.248Z,56.85
2023-03-26T10:55:57.237Z,56.65
2023-03-26T10:56:57.232Z,56.46
2023-03-26T10:57:57.229Z,56.39
2023-03-26T10:58:57.313Z,56.81
2023-03-26T11:01:57.419Z,56.70
2023-03-26T11:02:57.297Z,56.70
2023-03-26T11:03:57.232Z,56.46
2023-03-26T11:05:57.275Z,56.73
2023-03-26T11:06:57.308Z,56.29
2023-03-26T11:07:57.311Z,55.94
2023-03-26T11:08:57.282Z,56.09
2023-03-26T11:09:57.270Z,56.01
2023-03-26T11:10:57.473Z,55.38
2023-03-26T11:12:57.298Z,56.11
2023-03-26T11:13:57.295Z,56.26
2023-03-26T11:14:57.323Z,56.18
2023-03-26T11:15:57.320Z,55.60
2023-03-26T11:16:57.299Z,55.35
2023-03-26T11:17:57.319Z,55.22
2023-03-26T11:19:57.355Z,54.82
2023-03-26T11:21:18.001Z,54.82
2023-03-26T11:21:57.312Z,54.50
2023-03-26T11:22:57.310Z,54.09
2023-03-26T11:24:04.747Z,54.22
2023-03-26T11:24:57.348Z,54.25
2023-03-26T11:25:57.345Z,54.25
2023-03-26T11:26:57.340Z,54.01
2023-03-26T11:27:57.319Z,53.76
2023-03-26T11:29:04.105Z,53.88
2023-03-26T11:29:57.387Z,53.19
2023-03-26T11:30:57.510Z,52.01
2023-03-26T11:31:57.339Z,52.74
2023-03-26T11:32:57.388Z,52.52
2023-03-26T11:33:57.346Z,51.87
2023-03-26T11:34:57.361Z,52.00
2023-03-26T11:35:57.390Z,51.92
2023-03-26T11:36:57.343Z,51.12
2023-03-26T11:37:57.363Z,51.72
2023-03-26T11:38:57.391Z,51.54
2023-03-26T11:40:57.807Z,50.08
2023-03-26T11:41:57.347Z,50.33
2023-03-26T11:43:57.405Z,50.16
2023-03-26T11:44:57.383Z,50.19
2023-03-26T11:45:57.402Z,50.19
2023-03-26T11:46:57.456Z,49.97
2023-03-26T11:47:57.462Z,50.55
2023-03-26T11:48:57.410Z,50.08
2023-03-26T11:50:57.776Z,50.37
2023-03-26T11:51:57.369Z,50.28
2023-03-26T11:52:57.386Z,50.28
2023-03-26T11:53:57.434Z,50.62
2023-03-26T11:54:57.423Z,50.62
2023-03-26T11:55:57.443Z,50.19
2023-03-26T11:57:05.995Z,50.37
2023-03-26T11:57:57.373Z,50.37
2023-03-26T11:58:57.413Z,50.41
2023-03-26T11:59:58.130Z,50.33
2023-03-26T12:00:57.638Z,50.21
2023-03-26T12:01:57.450Z,50.86
2023-03-26T12:02:57.411Z,49.88
2023-03-26T12:03:57.478Z,48.79
2023-03-26T12:04:57.545Z,48.79
2023-03-26T12:05:57.422Z,47.99
2023-03-26T12:06:57.447Z,48.45
2023-03-26T12:07:57.937Z,48.53
2023-03-26T12:08:57.481Z,47.50
2023-03-26T12:09:57.439Z,47.31
2023-03-26T12:11:57.453Z,47.21
2023-03-26T12:12:57.466Z,47.09
2023-03-26T12:13:57.481Z,46.72
2023-03-26T12:14:57.452Z,46.72
2023-03-26T12:15:57.479Z,46.75
2023-03-26T12:16:57.558Z,46.75
2023-03-26T12:17:57.436Z,46.75
2023-03-26T12:18:57.458Z,47.31
2023-03-26T12:19:57.466Z,47.72
2023-03-26T12:20:57.438Z,47.72
2023-03-26T12:21:57.470Z,47.61
2023-03-26T12:22:57.446Z,47.15
2023-03-26T12:24:57.454Z,47.55
2023-03-26T12:25:57.498Z,47.66
2023-03-26T12:26:57.496Z,48.25
2023-03-26T12:27:57.465Z,48.25
2023-03-26T12:28:57.464Z,47.67
2023-03-26T12:29:57.477Z,47.45
2023-03-26T12:30:57.731Z,47.45
2023-03-26T12:31:57.639Z,48.64
2023-03-26T12:32:57.489Z,48.64
2023-03-26T12:33:59.025Z,49.42
2023-03-26T12:34:57.461Z,50.53
2023-03-26T12:35:57.469Z,50.80
2023-03-26T12:36:57.529Z,52.51
2023-03-26T12:37:57.525Z,54.49
2023-03-26T12:39:16.381Z,52.99
2023-03-26T12:40:07.089Z,52.78
2023-03-26T12:40:57.466Z,52.78
2023-03-26T12:43:19.755Z,52.63
2023-03-26T12:44:46.609Z,54.32
2023-03-26T12:44:52.999Z,54.32
2023-03-26T12:44:59.570Z,55.01
2023-03-26T12:47:45.993Z,55.01
2023-03-26T12:47:57.075Z,55.56
2023-03-26T12:48:03.573Z,55.07
2023-03-26T12:48:57.591Z,54.64
2023-03-26T12:49:57.520Z,54.39
2023-03-26T12:50:58.028Z,52.86
2023-03-26T12:51:57.579Z,51.68
2023-03-26T12:52:57.541Z,51.68
2023-03-26T12:53:57.542Z,52.39
2023-03-26T12:54:57.572Z,52.49
2023-03-26T12:55:57.565Z,51.45
2023-03-26T12:57:11.963Z,51.53
2023-03-26T12:57:57.562Z,49.24
2023-03-26T13:00:57.836Z,49.28
2023-03-26T13:01:57.604Z,49.11
2023-03-26T13:02:57.650Z,49.68
2023-03-26T13:03:57.567Z,49.59
2023-03-26T13:05:05.530Z,48.75
2023-03-26T13:05:57.572Z,49.28
2023-03-26T13:07:00.556Z,50.19
2023-03-26T13:07:57.580Z,50.55
2023-03-26T13:08:57.530Z,50.55
2023-03-26T13:09:57.536Z,50.56
2023-03-26T13:10:57.780Z,49.95
2023-03-26T13:11:57.593Z,50.67
2023-03-26T13:12:57.599Z,50.40
2023-03-26T13:13:57.585Z,51.14
2023-03-26T13:14:57.638Z,51.68
2023-03-26T13:15:57.572Z,51.68
2023-03-26T13:16:57.640Z,50.94
2023-03-26T13:18:57.587Z,50.89
2023-03-26T13:19:57.579Z,51.05
2023-03-26T13:20:57.702Z,51.05
2023-03-26T13:21:57.593Z,50.91
2023-03-26T13:22:57.607Z,50.59
2023-03-26T13:23:57.605Z,50.51
2023-03-26T13:24:57.661Z,49.27
2023-03-26T13:25:57.636Z,49.31
2023-03-26T13:26:57.600Z,49.31
2023-03-26T13:27:57.598Z,49.76
2023-03-26T13:28:57.679Z,50.07
2023-03-26T13:29:57.704Z,50.67
2023-03-26T13:30:57.943Z,50.67
2023-03-26T13:31:57.672Z,50.34
2023-03-26T13:32:57.724Z,49.82
2023-03-26T13:33:57.619Z,49.97
2023-03-26T13:34:57.682Z,50.31
2023-03-26T13:36:10.224Z,50.31
2023-03-26T13:36:57.643Z,50.94
2023-03-26T13:37:57.637Z,50.94
2023-03-26T13:38:59.150Z,51.08
2023-03-26T13:39:57.662Z,50.33
2023-03-26T13:40:57.846Z,50.33
2023-03-26T13:41:57.638Z,50.50
2023-03-26T13:42:57.673Z,49.16
2023-03-26T13:43:57.657Z,49.26
2023-03-26T13:45:05.072Z,49.29
2023-03-26T13:45:57.710Z,49.04
2023-03-26T13:46:57.696Z,48.99